sensor_id;sensor_type;location;lat;lon;timestamp;pressure;altitude;pressure_sealevel;temperature;humidity
42591;BME280;28218;53.342;-6.216;2023-09-30T00:02:26;102145.84;;;13.80;100.00
42591;BME280;28218;53.342;-6.216;2023-09-30T00:04:55;102148.66;;;13.79;100.00
42591;BME280;28218;53.342;-6.216;2023-09-30T00:07:23;102153.25;;;13.77;100.00
42591;BME280;28218;53.342;-6.216;2023-09-30T00:09:54;102156.91;;;13.76;100.00
42591;BME280;28218;53.342;-6.216;2023-09-30T00:12:23;102154.41;;;13.74;100.00
42591;BME280;28218;53.342;-6.216;2023-09-30T00:14:52;102149.94;;;13.75;100.00
42591;BME280;28218;53.342;-6.216;2023-09-30T00:17:20;102151.91;;;13.73;100.00
42591;BME280;28218;53.342;-6.216;2023-09-30T00:19:48;102146.94;;;13.70;100.00
42591;BME280;28218;53.342;-6.216;2023-09-30T00:22:17;102147.06;;;13.68;100.00
42591;BME280;28218;53.342;-6.216;2023-09-30T00:24:45;102154.34;;;13.66;100.00
42591;BME280;28218;53.342;-6.216;2023-09-30T00:27:15;102160.75;;;13.64;100.00
42591;BME280;28218;53.342;-6.216;2023-09-30T00:29:43;102165.38;;;13.62;100.00
42591;BME280;28218;53.342;-6.216;2023-09-30T00:32:11;102163.72;;;13.61;100.00
42591;BME280;28218;53.342;-6.216;2023-09-30T00:34:39;102162.38;;;13.57;100.00
42591;BME280;28218;53.342;-6.216;2023-09-30T00:37:09;102168.78;;;13.54;100.00
42591;BME280;28218;53.342;-6.216;2023-09-30T00:39:37;102165.31;;;13.53;100.00
42591;BME280;28218;53.342;-6.216;2023-09-30T00:42:06;102173.25;;;13.53;100.00
42591;BME280;28218;53.342;-6.216;2023-09-30T00:44:35;102176.06;;;13.52;100.00
42591;BME280;28218;53.342;-6.216;2023-09-30T00:47:04;102175.38;;;13.50;100.00
42591;BME280;28218;53.342;-6.216;2023-09-30T00:49:32;102177.19;;;13.49;100.00
42591;BME280;28218;53.342;-6.216;2023-09-30T00:52:01;102171.88;;;13.49;100.00
42591;BME280;28218;53.342;-6.216;2023-09-30T00:54:30;102170.06;;;13.50;100.00
42591;BME280;28218;53.342;-6.216;2023-09-30T00:56:59;102159.47;;;13.50;100.00
42591;BME280;28218;53.342;-6.216;2023-09-30T00:59:30;102155.19;;;13.49;100.00
42591;BME280;28218;53.342;-6.216;2023-09-30T01:02:01;102147.41;;;13.47;100.00
42591;BME280;28218;53.342;-6.216;2023-09-30T01:04:32;102137.78;;;13.46;100.00
42591;BME280;28218;53.342;-6.216;2023-09-30T01:07:01;102122.19;;;13.43;100.00
42591;BME280;28218;53.342;-6.216;2023-09-30T01:09:29;102123.19;;;13.42;100.00
42591;BME280;28218;53.342;-6.216;2023-09-30T01:11:57;102134.78;;;13.41;100.00
42591;BME280;28218;53.342;-6.216;2023-09-30T01:14:27;102140.34;;;13.38;100.00
42591;BME280;28218;53.342;-6.216;2023-09-30T01:16:56;102142.34;;;13.36;100.00
42591;BME280;28218;53.342;-6.216;2023-09-30T01:19:26;102145.28;;;13.33;100.00
42591;BME280;28218;53.342;-6.216;2023-09-30T01:21:57;102152.84;;;13.28;100.00
42591;BME280;28218;53.342;-6.216;2023-09-30T01:24:26;102156.63;;;13.25;100.00
42591;BME280;28218;53.342;-6.216;2023-09-30T01:26:55;102149.00;;;13.22;100.00
42591;BME280;28218;53.342;-6.216;2023-09-30T01:29:23;102161.38;;;13.22;100.00
42591;BME280;28218;53.342;-6.216;2023-09-30T01:31:53;102162.47;;;13.19;100.00
42591;BME280;28218;53.342;-6.216;2023-09-30T01:34:21;102167.94;;;13.18;100.00
42591;BME280;28218;53.342;-6.216;2023-09-30T01:36:49;102176.72;;;13.18;100.00
42591;BME280;28218;53.342;-6.216;2023-09-30T01:39:19;102176.84;;;13.17;100.00
42591;BME280;28218;53.342;-6.216;2023-09-30T01:41:47;102163.75;;;13.15;100.00
42591;BME280;28218;53.342;-6.216;2023-09-30T01:44:15;102169.34;;;13.12;100.00
42591;BME280;28218;53.342;-6.216;2023-09-30T01:46:44;102168.50;;;13.12;100.00
42591;BME280;28218;53.342;-6.216;2023-09-30T01:49:12;102163.53;;;13.09;100.00
42591;BME280;28218;53.342;-6.216;2023-09-30T01:51:40;102153.91;;;13.08;100.00
42591;BME280;28218;53.342;-6.216;2023-09-30T01:54:08;102152.41;;;13.05;100.00
42591;BME280;28218;53.342;-6.216;2023-09-30T01:56:39;102148.09;;;13.04;100.00
42591;BME280;28218;53.342;-6.216;2023-09-30T01:59:07;102151.59;;;13.04;100.00
42591;BME280;28218;53.342;-6.216;2023-09-30T02:01:35;102142.94;;;13.02;100.00
42591;BME280;28218;53.342;-6.216;2023-09-30T02:04:04;102139.34;;;13.03;100.00
42591;BME280;28218;53.342;-6.216;2023-09-30T02:06:34;102135.00;;;13.02;100.00
42591;BME280;28218;53.342;-6.216;2023-09-30T02:09:03;102147.41;;;13.02;100.00
42591;BME280;28218;53.342;-6.216;2023-09-30T02:11:35;102153.84;;;12.99;100.00
42591;BME280;28218;53.342;-6.216;2023-09-30T02:14:05;102151.19;;;12.99;100.00
42591;BME280;28218;53.342;-6.216;2023-09-30T02:16:34;102144.22;;;12.98;100.00
42591;BME280;28218;53.342;-6.216;2023-09-30T02:19:02;102142.28;;;13.00;100.00
42591;BME280;28218;53.342;-6.216;2023-09-30T02:21:30;102141.13;;;13.03;100.00
42591;BME280;28218;53.342;-6.216;2023-09-30T02:23:59;102134.72;;;13.05;100.00
42591;BME280;28218;53.342;-6.216;2023-09-30T02:26:27;102140.56;;;13.09;100.00
42591;BME280;28218;53.342;-6.216;2023-09-30T02:28:56;102142.06;;;13.12;100.00
42591;BME280;28218;53.342;-6.216;2023-09-30T02:31:26;102151.53;;;13.14;100.00
42591;BME280;28218;53.342;-6.216;2023-09-30T02:33:54;102147.06;;;13.15;100.00
42591;BME280;28218;53.342;-6.216;2023-09-30T02:36:23;102142.44;;;13.17;100.00
42591;BME280;28218;53.342;-6.216;2023-09-30T02:38:51;102124.72;;;13.17;100.00
42591;BME280;28218;53.342;-6.216;2023-09-30T02:41:20;102116.66;;;13.19;100.00
42591;BME280;28218;53.342;-6.216;2023-09-30T02:43:48;102109.56;;;13.19;100.00
42591;BME280;28218;53.342;-6.216;2023-09-30T02:46:16;102115.66;;;13.20;100.00
42591;BME280;28218;53.342;-6.216;2023-09-30T02:48:46;102118.31;;;13.20;100.00
42591;BME280;28218;53.342;-6.216;2023-09-30T02:51:14;102107.91;;;13.18;100.00
42591;BME280;28218;53.342;-6.216;2023-09-30T02:53:42;102108.72;;;13.19;100.00
42591;BME280;28218;53.342;-6.216;2023-09-30T02:56:10;102105.78;;;13.22;100.00
42591;BME280;28218;53.342;-6.216;2023-09-30T02:58:38;102107.47;;;13.23;100.00
42591;BME280;28218;53.342;-6.216;2023-09-30T03:01:07;102107.31;;;13.24;100.00
42591;BME280;28218;53.342;-6.216;2023-09-30T03:03:37;102101.72;;;13.27;100.00
42591;BME280;28218;53.342;-6.216;2023-09-30T03:06:08;102095.28;;;13.30;100.00
42591;BME280;28218;53.342;-6.216;2023-09-30T03:08:37;102099.59;;;13.31;100.00
42591;BME280;28218;53.342;-6.216;2023-09-30T03:11:05;102085.38;;;13.32;100.00
42591;BME280;28218;53.342;-6.216;2023-09-30T03:13:34;102065.88;;;13.33;100.00
42591;BME280;28218;53.342;-6.216;2023-09-30T03:16:02;102074.47;;;13.35;100.00
42591;BME280;28218;53.342;-6.216;2023-09-30T03:18:31;102079.75;;;13.35;100.00
42591;BME280;28218;53.342;-6.216;2023-09-30T03:21:01;102071.81;;;13.35;100.00
42591;BME280;28218;53.342;-6.216;2023-09-30T03:23:36;102070.34;;;13.33;100.00
42591;BME280;28218;53.342;-6.216;2023-09-30T03:26:05;102066.69;;;13.34;100.00
42591;BME280;28218;53.342;-6.216;2023-09-30T03:28:37;102063.38;;;13.32;100.00
42591;BME280;28218;53.342;-6.216;2023-09-30T03:31:05;102055.72;;;13.28;100.00
42591;BME280;28218;53.342;-6.216;2023-09-30T03:33:34;102054.22;;;13.26;100.00
42591;BME280;28218;53.342;-6.216;2023-09-30T03:36:02;102047.25;;;13.25;100.00
42591;BME280;28218;53.342;-6.216;2023-09-30T03:38:31;102040.97;;;13.26;100.00
42591;BME280;28218;53.342;-6.216;2023-09-30T03:41:01;102036.66;;;13.25;100.00
42591;BME280;28218;53.342;-6.216;2023-09-30T03:43:29;102039.03;;;13.28;100.00
42591;BME280;28218;53.342;-6.216;2023-09-30T03:45:57;102046.97;;;13.28;100.00
42591;BME280;28218;53.342;-6.216;2023-09-30T03:48:25;102042.50;;;13.28;100.00
42591;BME280;28218;53.342;-6.216;2023-09-30T03:50:53;102034.41;;;13.30;100.00
42591;BME280;28218;53.342;-6.216;2023-09-30T03:53:22;102033.72;;;13.28;100.00
42591;BME280;28218;53.342;-6.216;2023-09-30T03:55:53;102042.34;;;13.30;100.00
42591;BME280;28218;53.342;-6.216;2023-09-30T03:58:23;102046.13;;;13.27;100.00
42591;BME280;28218;53.342;-6.216;2023-09-30T04:00:51;102053.25;;;13.27;100.00
42591;BME280;28218;53.342;-6.216;2023-09-30T04:03:20;102054.22;;;13.26;100.00
42591;BME280;28218;53.342;-6.216;2023-09-30T04:05:48;102048.50;;;13.21;100.00
42591;BME280;28218;53.342;-6.216;2023-09-30T04:08:17;102052.44;;;13.17;100.00
42591;BME280;28218;53.342;-6.216;2023-09-30T04:10:45;102049.13;;;13.15;100.00
42591;BME280;28218;53.342;-6.216;2023-09-30T04:13:14;102051.13;;;13.13;100.00
42591;BME280;28218;53.342;-6.216;2023-09-30T04:15:43;102053.06;;;13.11;100.00
42591;BME280;28218;53.342;-6.216;2023-09-30T04:18:15;102053.34;;;13.08;100.00
42591;BME280;28218;53.342;-6.216;2023-09-30T04:20:47;102060.63;;;13.05;100.00
42591;BME280;28218;53.342;-6.216;2023-09-30T04:23:15;102054.66;;;13.03;100.00
42591;BME280;28218;53.342;-6.216;2023-09-30T04:25:43;102046.03;;;13.01;100.00
42591;BME280;28218;53.342;-6.216;2023-09-30T04:28:11;102046.03;;;13.01;100.00
42591;BME280;28218;53.342;-6.216;2023-09-30T04:30:40;102045.50;;;12.98;100.00
42591;BME280;28218;53.342;-6.216;2023-09-30T04:33:10;102045.38;;;12.99;100.00
42591;BME280;28218;53.342;-6.216;2023-09-30T04:35:40;102033.25;;;12.97;100.00
42591;BME280;28218;53.342;-6.216;2023-09-30T04:38:08;102031.59;;;12.96;100.00
42591;BME280;28218;53.342;-6.216;2023-09-30T04:40:37;102023.50;;;12.97;100.00
42591;BME280;28218;53.342;-6.216;2023-09-30T04:43:06;102019.88;;;12.98;100.00
42591;BME280;28218;53.342;-6.216;2023-09-30T04:45:34;102014.44;;;13.00;100.00
42591;BME280;28218;53.342;-6.216;2023-09-30T04:48:03;101997.75;;;12.99;100.00
42591;BME280;28218;53.342;-6.216;2023-09-30T04:50:33;101998.56;;;13.00;100.00
42591;BME280;28218;53.342;-6.216;2023-09-30T04:53:01;101983.81;;;12.97;100.00
42591;BME280;28218;53.342;-6.216;2023-09-30T04:55:29;101988.44;;;12.95;100.00
42591;BME280;28218;53.342;-6.216;2023-09-30T04:57:57;101995.56;;;12.95;100.00
42591;BME280;28218;53.342;-6.216;2023-09-30T05:00:25;101990.09;;;12.96;100.00
42591;BME280;28218;53.342;-6.216;2023-09-30T05:02:55;101987.47;;;12.96;100.00
42591;BME280;28218;53.342;-6.216;2023-09-30T05:05:25;101996.06;;;12.98;100.00
42591;BME280;28218;53.342;-6.216;2023-09-30T05:07:56;101986.16;;;13.00;100.00
42591;BME280;28218;53.342;-6.216;2023-09-30T05:10:25;101991.47;;;13.00;100.00
42591;BME280;28218;53.342;-6.216;2023-09-30T05:12:55;101991.31;;;13.02;100.00
42591;BME280;28218;53.342;-6.216;2023-09-30T05:15:23;101992.00;;;13.04;100.00
42591;BME280;28218;53.342;-6.216;2023-09-30T05:17:52;101989.19;;;13.05;100.00
42591;BME280;28218;53.342;-6.216;2023-09-30T05:20:20;101984.72;;;13.06;100.00
42591;BME280;28218;53.342;-6.216;2023-09-30T05:22:49;101986.38;;;13.07;100.00
42591;BME280;28218;53.342;-6.216;2023-09-30T05:25:19;101987.91;;;13.10;100.00
42591;BME280;28218;53.342;-6.216;2023-09-30T05:27:51;101992.19;;;13.11;100.00
42591;BME280;28218;53.342;-6.216;2023-09-30T05:30:20;101989.25;;;13.14;100.00
42591;BME280;28218;53.342;-6.216;2023-09-30T05:32:50;101998.84;;;13.15;100.00
42591;BME280;28218;53.342;-6.216;2023-09-30T05:35:19;101990.75;;;13.16;100.00
42591;BME280;28218;53.342;-6.216;2023-09-30T05:37:49;101985.31;;;13.18;100.00
42591;BME280;28218;53.342;-6.216;2023-09-30T05:40:21;101981.69;;;13.19;100.00
42591;BME280;28218;53.342;-6.216;2023-09-30T05:42:53;101986.97;;;13.19;100.00
42591;BME280;28218;53.342;-6.216;2023-09-30T05:45:22;101988.78;;;13.18;100.00
42591;BME280;28218;53.342;-6.216;2023-09-30T05:47:53;101984.34;;;13.19;100.00
42591;BME280;28218;53.342;-6.216;2023-09-30T05:50:23;101988.94;;;13.17;100.00
42591;BME280;28218;53.342;-6.216;2023-09-30T05:52:54;101995.06;;;13.17;100.00
42591;BME280;28218;53.342;-6.216;2023-09-30T05:55:24;101994.22;;;13.17;100.00
42591;BME280;28218;53.342;-6.216;2023-09-30T05:57:53;101999.38;;;13.18;100.00
42591;BME280;28218;53.342;-6.216;2023-09-30T06:00:22;101998.56;;;13.18;100.00
42591;BME280;28218;53.342;-6.216;2023-09-30T06:02:56;102011.63;;;13.19;100.00
42591;BME280;28218;53.342;-6.216;2023-09-30T06:05:25;102011.63;;;13.19;100.00
42591;BME280;28218;53.342;-6.216;2023-09-30T06:07:56;102017.75;;;13.20;100.00
42591;BME280;28218;53.342;-6.216;2023-09-30T06:10:26;102013.28;;;13.20;100.00
42591;BME280;28218;53.342;-6.216;2023-09-30T06:12:54;102011.38;;;13.22;100.00
42591;BME280;28218;53.342;-6.216;2023-09-30T06:15:24;102009.63;;;13.21;100.00
42591;BME280;28218;53.342;-6.216;2023-09-30T06:17:54;102014.28;;;13.19;100.00
42591;BME280;28218;53.342;-6.216;2023-09-30T06:20:24;102007.16;;;13.20;100.00
42591;BME280;28218;53.342;-6.216;2023-09-30T06:22:54;102002.69;;;13.20;100.00
42591;BME280;28218;53.342;-6.216;2023-09-30T06:25:23;102001.03;;;13.19;100.00
42591;BME280;28218;53.342;-6.216;2023-09-30T06:27:53;101999.22;;;13.20;100.00
42591;BME280;28218;53.342;-6.216;2023-09-30T06:30:23;101996.56;;;13.20;100.00
42591;BME280;28218;53.342;-6.216;2023-09-30T06:32:58;101990.44;;;13.19;100.00
42591;BME280;28218;53.342;-6.216;2023-09-30T06:35:28;102001.03;;;13.19;100.00
42591;BME280;28218;53.342;-6.216;2023-09-30T06:37:57;101994.91;;;13.19;100.00
42591;BME280;28218;53.342;-6.216;2023-09-30T06:40:26;101986.81;;;13.20;100.00
42591;BME280;28218;53.342;-6.216;2023-09-30T06:42:55;101978.75;;;13.22;100.00
42591;BME280;28218;53.342;-6.216;2023-09-30T06:45:24;101963.72;;;13.22;100.00
42591;BME280;28218;53.342;-6.216;2023-09-30T06:47:53;101960.91;;;13.24;100.00
42591;BME280;28218;53.342;-6.216;2023-09-30T06:50:21;101971.31;;;13.25;100.00
42591;BME280;28218;53.342;-6.216;2023-09-30T06:52:50;101970.34;;;13.26;100.00
42591;BME280;28218;53.342;-6.216;2023-09-30T06:55:19;101958.63;;;13.29;100.00
42591;BME280;28218;53.342;-6.216;2023-09-30T06:57:47;101957.63;;;13.30;100.00
42591;BME280;28218;53.342;-6.216;2023-09-30T07:00:16;101950.38;;;13.32;100.00
42591;BME280;28218;53.342;-6.216;2023-09-30T07:02:45;101958.16;;;13.34;100.00
42591;BME280;28218;53.342;-6.216;2023-09-30T07:05:15;101948.56;;;13.33;100.00
42591;BME280;28218;53.342;-6.216;2023-09-30T07:07:44;101942.28;;;13.34;100.00
42591;BME280;28218;53.342;-6.216;2023-09-30T07:10:12;101939.47;;;13.35;100.00
42591;BME280;28218;53.342;-6.216;2023-09-30T07:12:41;101924.25;;;13.37;100.00
42591;BME280;28218;53.342;-6.216;2023-09-30T07:15:10;101927.75;;;13.38;100.00
42591;BME280;28218;53.342;-6.216;2023-09-30T07:17:40;101935.34;;;13.41;100.00
42591;BME280;28218;53.342;-6.216;2023-09-30T07:20:11;101934.22;;;13.43;100.00
42591;BME280;28218;53.342;-6.216;2023-09-30T07:22:40;101929.75;;;13.44;100.00
42591;BME280;28218;53.342;-6.216;2023-09-30T07:25:11;101916.50;;;13.44;100.00
42591;BME280;28218;53.342;-6.216;2023-09-30T07:27:41;101909.09;;;13.47;100.00
42591;BME280;28218;53.342;-6.216;2023-09-30T07:30:11;101913.22;;;13.50;100.00
42591;BME280;28218;53.342;-6.216;2023-09-30T07:32:44;101910.44;;;13.51;100.00
42591;BME280;28218;53.342;-6.216;2023-09-30T07:35:14;101915.56;;;13.53;100.00
42591;BME280;28218;53.342;-6.216;2023-09-30T07:37:42;101906.50;;;13.55;100.00
42591;BME280;28218;53.342;-6.216;2023-09-30T07:40:11;101908.97;;;13.57;100.00
42591;BME280;28218;53.342;-6.216;2023-09-30T07:42:40;101911.63;;;13.57;100.00
42591;BME280;28218;53.342;-6.216;2023-09-30T07:45:09;101912.13;;;13.61;100.00
42591;BME280;28218;53.342;-6.216;2023-09-30T07:47:38;101921.56;;;13.63;100.00
42591;BME280;28218;53.342;-6.216;2023-09-30T07:50:09;101919.59;;;13.65;100.00
42591;BME280;28218;53.342;-6.216;2023-09-30T07:52:39;101921.09;;;13.68;100.00
42591;BME280;28218;53.342;-6.216;2023-09-30T07:55:09;101923.59;;;13.69;100.00
42591;BME280;28218;53.342;-6.216;2023-09-30T07:57:39;101922.59;;;13.70;100.00
42591;BME280;28218;53.342;-6.216;2023-09-30T08:00:09;101922.44;;;13.72;100.00
42591;BME280;28218;53.342;-6.216;2023-09-30T08:02:42;101923.13;;;13.74;100.00
42591;BME280;28218;53.342;-6.216;2023-09-30T08:05:12;101922.13;;;13.75;100.00
42591;BME280;28218;53.342;-6.216;2023-09-30T08:07:40;101925.44;;;13.77;100.00
42591;BME280;28218;53.342;-6.216;2023-09-30T08:10:09;101927.09;;;13.78;100.00
42591;BME280;28218;53.342;-6.216;2023-09-30T08:12:41;101926.94;;;13.79;100.00
42591;BME280;28218;53.342;-6.216;2023-09-30T08:15:10;101931.09;;;13.82;100.00
42591;BME280;28218;53.342;-6.216;2023-09-30T08:17:40;101928.44;;;13.82;100.00
42591;BME280;28218;53.342;-6.216;2023-09-30T08:20:08;101931.78;;;13.84;100.00
42591;BME280;28218;53.342;-6.216;2023-09-30T08:22:39;101921.81;;;13.86;100.00
42591;BME280;28218;53.342;-6.216;2023-09-30T08:25:08;101917.22;;;13.88;100.00
42591;BME280;28218;53.342;-6.216;2023-09-30T08:27:37;101913.41;;;13.91;100.00
42591;BME280;28218;53.342;-6.216;2023-09-30T08:30:07;101911.44;;;13.93;100.00
42591;BME280;28218;53.342;-6.216;2023-09-30T08:32:35;101899.66;;;13.95;100.00
42591;BME280;28218;53.342;-6.216;2023-09-30T08:35:04;101898.84;;;13.95;100.00
42591;BME280;28218;53.342;-6.216;2023-09-30T08:37:33;101898.66;;;13.96;100.00
42591;BME280;28218;53.342;-6.216;2023-09-30T08:40:04;101897.53;;;13.99;100.00
42591;BME280;28218;53.342;-6.216;2023-09-30T08:42:32;101892.41;;;13.97;100.00
42591;BME280;28218;53.342;-6.216;2023-09-30T08:45:02;101894.38;;;13.95;100.00
42591;BME280;28218;53.342;-6.216;2023-09-30T08:47:34;101888.06;;;13.96;100.00
42591;BME280;28218;53.342;-6.216;2023-09-30T08:50:03;101890.41;;;13.99;100.00
42591;BME280;28218;53.342;-6.216;2023-09-30T08:52:34;101896.38;;;14.01;100.00
42591;BME280;28218;53.342;-6.216;2023-09-30T08:55:08;101884.63;;;14.04;100.00
42591;BME280;28218;53.342;-6.216;2023-09-30T08:57:38;101880.97;;;14.05;100.00
42591;BME280;28218;53.342;-6.216;2023-09-30T09:00:09;101879.84;;;14.07;100.00
42591;BME280;28218;53.342;-6.216;2023-09-30T09:02:40;101883.97;;;14.10;100.00
42591;BME280;28218;53.342;-6.216;2023-09-30T09:05:09;101882.81;;;14.13;100.00
42591;BME280;28218;53.342;-6.216;2023-09-30T09:07:38;101875.53;;;14.15;100.00
42591;BME280;28218;53.342;-6.216;2023-09-30T09:10:10;101877.84;;;14.18;100.00
42591;BME280;28218;53.342;-6.216;2023-09-30T09:12:41;101867.25;;;14.18;100.00
42591;BME280;28218;53.342;-6.216;2023-09-30T09:15:20;101878.84;;;14.17;100.00
42591;BME280;28218;53.342;-6.216;2023-09-30T09:17:49;101871.72;;;14.17;100.00
42591;BME280;28218;53.342;-6.216;2023-09-30T09:20:19;101870.72;;;14.18;100.00
42591;BME280;28218;53.342;-6.216;2023-09-30T09:22:50;101870.72;;;14.18;100.00
42591;BME280;28218;53.342;-6.216;2023-09-30T09:25:22;101869.09;;;14.17;100.00
42591;BME280;28218;53.342;-6.216;2023-09-30T09:27:51;101864.78;;;14.16;100.00
42591;BME280;28218;53.342;-6.216;2023-09-30T09:30:23;101866.56;;;14.16;100.00
42591;BME280;28218;53.342;-6.216;2023-09-30T09:32:59;101857.16;;;14.13;100.00
42591;BME280;28218;53.342;-6.216;2023-09-30T09:35:30;101842.91;;;14.14;100.00
42591;BME280;28218;53.342;-6.216;2023-09-30T09:38:01;101839.59;;;14.12;100.00
42591;BME280;28218;53.342;-6.216;2023-09-30T09:40:32;101828.16;;;14.12;100.00
42591;BME280;28218;53.342;-6.216;2023-09-30T09:43:02;101822.00;;;14.11;100.00
42591;BME280;28218;53.342;-6.216;2023-09-30T09:45:32;101815.88;;;14.11;100.00
42591;BME280;28218;53.342;-6.216;2023-09-30T09:48:03;101816.06;;;14.09;100.00
42591;BME280;28218;53.342;-6.216;2023-09-30T09:50:32;101814.41;;;14.08;100.00
42591;BME280;28218;53.342;-6.216;2023-09-30T09:53:04;101802.97;;;14.07;100.00
42591;BME280;28218;53.342;-6.216;2023-09-30T09:55:36;101800.31;;;14.07;100.00
42591;BME280;28218;53.342;-6.216;2023-09-30T09:58:06;101785.41;;;14.06;100.00
42591;BME280;28218;53.342;-6.216;2023-09-30T10:00:38;101785.75;;;14.03;100.00
42591;BME280;28218;53.342;-6.216;2023-09-30T10:03:07;101774.81;;;13.98;100.00
42591;BME280;28218;53.342;-6.216;2023-09-30T10:05:35;101776.47;;;13.99;100.00
42591;BME280;28218;53.342;-6.216;2023-09-30T10:08:08;101771.16;;;13.99;100.00
42591;BME280;28218;53.342;-6.216;2023-09-30T10:10:39;101765.69;;;14.01;100.00
42591;BME280;28218;53.342;-6.216;2023-09-30T10:13:08;101770.50;;;14.05;100.00
42591;BME280;28218;53.342;-6.216;2023-09-30T10:15:39;101754.59;;;14.05;100.00
42591;BME280;28218;53.342;-6.216;2023-09-30T10:18:11;101741.34;;;14.05;100.00
42591;BME280;28218;53.342;-6.216;2023-09-30T10:20:43;101726.28;;;14.06;100.00
42591;BME280;28218;53.342;-6.216;2023-09-30T10:23:23;101720.16;;;14.05;100.00
42591;BME280;28218;53.342;-6.216;2023-09-30T10:26:14;101706.91;;;14.05;100.00
42591;BME280;28218;53.342;-6.216;2023-09-30T10:28:45;101694.66;;;14.04;100.00
42591;BME280;28218;53.342;-6.216;2023-09-30T10:31:17;101678.09;;;14.02;100.00
42591;BME280;28218;53.342;-6.216;2023-09-30T10:34:20;101664.84;;;14.02;100.00
42591;BME280;28218;53.342;-6.216;2023-09-30T10:36:48;101661.19;;;14.03;100.00
42591;BME280;28218;53.342;-6.216;2023-09-30T10:42:08;101661.19;;;14.03;100.00
42591;BME280;28218;53.342;-6.216;2023-09-30T10:44:36;101670.97;;;14.03;100.00
42591;BME280;28218;53.342;-6.216;2023-09-30T10:47:36;101661.84;;;14.05;100.00
42591;BME280;28218;53.342;-6.216;2023-09-30T10:53:09;101666.13;;;14.06;100.00
42591;BME280;28218;53.342;-6.216;2023-09-30T10:55:37;101666.63;;;14.10;100.00
42591;BME280;28218;53.342;-6.216;2023-09-30T10:58:09;101650.25;;;14.06;100.00
42591;BME280;28218;53.342;-6.216;2023-09-30T11:00:37;101638.81;;;14.06;100.00
42591;BME280;28218;53.342;-6.216;2023-09-30T11:03:06;101629.03;;;14.06;100.00
42591;BME280;28218;53.342;-6.216;2023-09-30T11:05:34;101634.34;;;14.06;100.00
42591;BME280;28218;53.342;-6.216;2023-09-30T11:08:23;101633.88;;;14.03;100.00
42591;BME280;28218;53.342;-6.216;2023-09-30T11:10:52;101630.09;;;13.97;100.00
42591;BME280;28218;53.342;-6.216;2023-09-30T11:13:22;101619.81;;;13.94;100.00
42591;BME280;28218;53.342;-6.216;2023-09-30T11:15:59;101615.66;;;13.92;100.00
42591;BME280;28218;53.342;-6.216;2023-09-30T11:18:29;101609.84;;;13.96;100.00
42591;BME280;28218;53.342;-6.216;2023-09-30T11:21:06;101603.59;;;13.97;100.00
42591;BME280;28218;53.342;-6.216;2023-09-30T11:23:36;101593.00;;;13.97;100.00
42591;BME280;28218;53.342;-6.216;2023-09-30T11:26:04;101599.75;;;13.92;100.00
42591;BME280;28218;53.342;-6.216;2023-09-30T11:28:39;101589.66;;;13.87;100.00
42591;BME280;28218;53.342;-6.216;2023-09-30T11:31:09;101602.41;;;13.92;100.00
42591;BME280;28218;53.342;-6.216;2023-09-30T11:33:48;101595.66;;;13.89;100.00
42591;BME280;28218;53.342;-6.216;2023-09-30T11:36:19;101583.91;;;13.84;100.00
42591;BME280;28218;53.342;-6.216;2023-09-30T11:38:50;101587.69;;;13.81;100.00
42591;BME280;28218;53.342;-6.216;2023-09-30T11:41:20;101581.09;;;13.77;100.00
42591;BME280;28218;53.342;-6.216;2023-09-30T11:44:01;101579.25;;;13.77;100.00
42591;BME280;28218;53.342;-6.216;2023-09-30T11:46:31;101572.81;;;13.80;100.00
42591;BME280;28218;53.342;-6.216;2023-09-30T11:49:02;101560.38;;;13.80;100.00
42591;BME280;28218;53.342;-6.216;2023-09-30T11:51:42;101552.94;;;13.76;100.00
42591;BME280;28218;53.342;-6.216;2023-09-30T11:54:13;101538.69;;;13.77;100.00
42591;BME280;28218;53.342;-6.216;2023-09-30T11:56:43;101528.47;;;13.74;100.00
42591;BME280;28218;53.342;-6.216;2023-09-30T11:59:13;101525.16;;;13.72;100.00
42591;BME280;28218;53.342;-6.216;2023-09-30T12:01:41;101518.03;;;13.72;100.00
42591;BME280;28218;53.342;-6.216;2023-09-30T12:04:18;101515.22;;;13.74;100.00
42591;BME280;28218;53.342;-6.216;2023-09-30T12:06:47;101514.72;;;13.70;100.00
42591;BME280;28218;53.342;-6.216;2023-09-30T12:09:16;101485.75;;;13.69;100.00
42591;BME280;28218;53.342;-6.216;2023-09-30T12:11:49;101477.66;;;13.62;100.00
42591;BME280;28218;53.342;-6.216;2023-09-30T12:14:19;101479.66;;;13.60;100.00
42591;BME280;28218;53.342;-6.216;2023-09-30T12:16:47;101470.91;;;13.51;100.00
42591;BME280;28218;53.342;-6.216;2023-09-30T12:19:17;101456.03;;;13.50;100.00
42591;BME280;28218;53.342;-6.216;2023-09-30T12:21:46;101438.97;;;13.45;100.00
42591;BME280;28218;53.342;-6.216;2023-09-30T12:24:15;101427.22;;;13.47;100.00
42591;BME280;28218;53.342;-6.216;2023-09-30T12:26:44;101423.59;;;13.48;100.00
42591;BME280;28218;53.342;-6.216;2023-09-30T12:29:14;101428.56;;;13.51;100.00
42591;BME280;28218;53.342;-6.216;2023-09-30T12:31:46;101416.13;;;13.52;100.00
42591;BME280;28218;53.342;-6.216;2023-09-30T12:34:17;101417.59;;;13.54;100.00
42591;BME280;28218;53.342;-6.216;2023-09-30T12:36:45;101413.31;;;13.53;100.00
42591;BME280;28218;53.342;-6.216;2023-09-30T12:39:14;101413.31;;;13.53;100.00
42591;BME280;28218;53.342;-6.216;2023-09-30T12:41:44;101400.06;;;13.53;100.00
42591;BME280;28218;53.342;-6.216;2023-09-30T12:44:13;101398.56;;;13.59;100.00
42591;BME280;28218;53.342;-6.216;2023-09-30T12:46:41;101385.63;;;13.64;100.00
42591;BME280;28218;53.342;-6.216;2023-09-30T12:49:11;101369.59;;;13.66;100.00
42591;BME280;28218;53.342;-6.216;2023-09-30T12:51:39;101369.59;;;13.66;100.00